sensor_id;sensor_type;location;lat;lon;timestamp;P1;durP1;ratioP1;P2;durP2;ratioP2
10226;SDS011;15634;48.766;2.272;2022-12-29T00:01:26;3.97;;;1.95;;
10226;SDS011;15634;48.766;2.272;2022-12-29T00:03:53;4.57;;;2.08;;
10226;SDS011;15634;48.766;2.272;2022-12-29T00:06:20;6.68;;;2.35;;
10226;SDS011;15634;48.766;2.272;2022-12-29T00:08:46;3.25;;;1.88;;
10226;SDS011;15634;48.766;2.272;2022-12-29T00:11:15;5.18;;;2.00;;
10226;SDS011;15634;48.766;2.272;2022-12-29T00:13:44;5.50;;;2.10;;
10226;SDS011;15634;48.766;2.272;2022-12-29T00:16:29;4.60;;;2.13;;
10226;SDS011;15634;48.766;2.272;2022-12-29T00:18:57;4.95;;;2.15;;
10226;SDS011;15634;48.766;2.272;2022-12-29T00:21:23;6.50;;;2.53;;
10226;SDS011;15634;48.766;2.272;2022-12-29T00:24:09;5.00;;;2.38;;
10226;SDS011;15634;48.766;2.272;2022-12-29T00:26:58;5.97;;;2.50;;
10226;SDS011;15634;48.766;2.272;2022-12-29T00:29:51;6.82;;;2.08;;
10226;SDS011;15634;48.766;2.272;2022-12-29T00:32:35;7.47;;;2.38;;
10226;SDS011;15634;48.766;2.272;2022-12-29T00:35:23;6.60;;;2.47;;
10226;SDS011;15634;48.766;2.272;2022-12-29T00:37:51;8.60;;;2.58;;
10226;SDS011;15634;48.766;2.272;2022-12-29T00:40:36;7.25;;;2.33;;
10226;SDS011;15634;48.766;2.272;2022-12-29T00:46:05;8.07;;;2.63;;
10226;SDS011;15634;48.766;2.272;2022-12-29T00:48:32;6.78;;;2.70;;
10226;SDS011;15634;48.766;2.272;2022-12-29T00:51:16;6.63;;;2.58;;
10226;SDS011;15634;48.766;2.272;2022-12-29T00:53:42;9.05;;;2.97;;
10226;SDS011;15634;48.766;2.272;2022-12-29T00:56:09;6.97;;;2.70;;
10226;SDS011;15634;48.766;2.272;2022-12-29T00:58:37;5.22;;;2.53;;
10226;SDS011;15634;48.766;2.272;2022-12-29T01:01:04;8.27;;;2.72;;
10226;SDS011;15634;48.766;2.272;2022-12-29T01:03:32;6.60;;;2.55;;
10226;SDS011;15634;48.766;2.272;2022-12-29T01:05:59;9.07;;;2.85;;
10226;SDS011;15634;48.766;2.272;2022-12-29T01:08:26;7.53;;;3.10;;
10226;SDS011;15634;48.766;2.272;2022-12-29T01:11:00;9.82;;;2.75;;
10226;SDS011;15634;48.766;2.272;2022-12-29T01:13:26;7.28;;;2.50;;
10226;SDS011;15634;48.766;2.272;2022-12-29T01:15:54;5.88;;;2.20;;
10226;SDS011;15634;48.766;2.272;2022-12-29T01:18:21;6.53;;;2.20;;
10226;SDS011;15634;48.766;2.272;2022-12-29T01:20:49;8.10;;;2.38;;
10226;SDS011;15634;48.766;2.272;2022-12-29T01:23:16;11.50;;;2.53;;
10226;SDS011;15634;48.766;2.272;2022-12-29T01:25:43;5.82;;;2.50;;
10226;SDS011;15634;48.766;2.272;2022-12-29T01:28:09;7.38;;;2.30;;
10226;SDS011;15634;48.766;2.272;2022-12-29T01:30:36;5.07;;;1.90;;
10226;SDS011;15634;48.766;2.272;2022-12-29T01:33:04;5.22;;;2.08;;
10226;SDS011;15634;48.766;2.272;2022-12-29T01:35:31;6.45;;;1.85;;
10226;SDS011;15634;48.766;2.272;2022-12-29T01:37:58;5.00;;;1.70;;
10226;SDS011;15634;48.766;2.272;2022-12-29T01:40:24;6.15;;;1.85;;
10226;SDS011;15634;48.766;2.272;2022-12-29T01:42:51;5.50;;;1.83;;
10226;SDS011;15634;48.766;2.272;2022-12-29T01:45:17;4.97;;;2.13;;
10226;SDS011;15634;48.766;2.272;2022-12-29T01:47:45;5.90;;;1.83;;
10226;SDS011;15634;48.766;2.272;2022-12-29T01:50:15;4.70;;;2.00;;
10226;SDS011;15634;48.766;2.272;2022-12-29T01:52:44;3.97;;;1.92;;
10226;SDS011;15634;48.766;2.272;2022-12-29T01:55:16;7.10;;;1.90;;
10226;SDS011;15634;48.766;2.272;2022-12-29T01:57:44;8.25;;;2.35;;
10226;SDS011;15634;48.766;2.272;2022-12-29T02:00:13;8.45;;;2.10;;
10226;SDS011;15634;48.766;2.272;2022-12-29T02:02:40;6.35;;;1.90;;
10226;SDS011;15634;48.766;2.272;2022-12-29T02:05:10;3.95;;;1.65;;
10226;SDS011;15634;48.766;2.272;2022-12-29T02:07:40;5.55;;;2.08;;
10226;SDS011;15634;48.766;2.272;2022-12-29T02:10:07;7.65;;;2.00;;
10226;SDS011;15634;48.766;2.272;2022-12-29T02:12:34;5.40;;;1.55;;
10226;SDS011;15634;48.766;2.272;2022-12-29T02:15:01;4.72;;;1.88;;
10226;SDS011;15634;48.766;2.272;2022-12-29T02:17:32;6.65;;;1.90;;
10226;SDS011;15634;48.766;2.272;2022-12-29T02:23:06;4.90;;;1.52;;
10226;SDS011;15634;48.766;2.272;2022-12-29T02:25:52;3.50;;;1.17;;
10226;SDS011;15634;48.766;2.272;2022-12-29T02:31:26;2.22;;;0.80;;
10226;SDS011;15634;48.766;2.272;2022-12-29T02:33:59;4.13;;;0.90;;
10226;SDS011;15634;48.766;2.272;2022-12-29T02:36:31;3.10;;;1.17;;
10226;SDS011;15634;48.766;2.272;2022-12-29T02:39:04;3.15;;;0.95;;
10226;SDS011;15634;48.766;2.272;2022-12-29T02:41:34;3.28;;;0.88;;
10226;SDS011;15634;48.766;2.272;2022-12-29T02:44:07;3.15;;;1.13;;
10226;SDS011;15634;48.766;2.272;2022-12-29T02:46:43;2.08;;;0.90;;
10226;SDS011;15634;48.766;2.272;2022-12-29T02:49:13;5.97;;;1.73;;
10226;SDS011;15634;48.766;2.272;2022-12-29T02:51:43;2.97;;;1.30;;
10226;SDS011;15634;48.766;2.272;2022-12-29T02:54:12;5.85;;;1.48;;
10226;SDS011;15634;48.766;2.272;2022-12-29T02:56:57;7.38;;;1.10;;
10226;SDS011;15634;48.766;2.272;2022-12-29T02:59:23;2.85;;;0.95;;
10226;SDS011;15634;48.766;2.272;2022-12-29T03:01:59;4.90;;;1.55;;
10226;SDS011;15634;48.766;2.272;2022-12-29T03:04:51;5.97;;;1.40;;
10226;SDS011;15634;48.766;2.272;2022-12-29T03:07:29;4.05;;;1.70;;
10226;SDS011;15634;48.766;2.272;2022-12-29T03:12:31;7.30;;;1.63;;
10226;SDS011;15634;48.766;2.272;2022-12-29T03:15:21;5.93;;;1.40;;
10226;SDS011;15634;48.766;2.272;2022-12-29T03:18:09;7.78;;;1.45;;
10226;SDS011;15634;48.766;2.272;2022-12-29T03:20:41;6.50;;;1.85;;
10226;SDS011;15634;48.766;2.272;2022-12-29T03:23:15;4.93;;;1.30;;
10226;SDS011;15634;48.766;2.272;2022-12-29T03:25:43;7.05;;;1.95;;
10226;SDS011;15634;48.766;2.272;2022-12-29T03:28:12;5.25;;;1.73;;
10226;SDS011;15634;48.766;2.272;2022-12-29T03:30:42;7.93;;;1.63;;
10226;SDS011;15634;48.766;2.272;2022-12-29T03:33:12;6.63;;;1.88;;
10226;SDS011;15634;48.766;2.272;2022-12-29T03:35:40;6.43;;;1.70;;
10226;SDS011;15634;48.766;2.272;2022-12-29T03:38:09;5.22;;;1.83;;
10226;SDS011;15634;48.766;2.272;2022-12-29T03:40:38;6.75;;;1.48;;
10226;SDS011;15634;48.766;2.272;2022-12-29T03:43:05;6.95;;;1.63;;
10226;SDS011;15634;48.766;2.272;2022-12-29T03:45:31;8.15;;;1.75;;
10226;SDS011;15634;48.766;2.272;2022-12-29T03:47:58;4.03;;;1.42;;
10226;SDS011;15634;48.766;2.272;2022-12-29T03:50:26;5.00;;;1.50;;
10226;SDS011;15634;48.766;2.272;2022-12-29T03:52:53;8.23;;;1.63;;
10226;SDS011;15634;48.766;2.272;2022-12-29T03:55:20;6.65;;;1.55;;
10226;SDS011;15634;48.766;2.272;2022-12-29T03:57:46;6.55;;;1.80;;
10226;SDS011;15634;48.766;2.272;2022-12-29T04:00:13;6.47;;;1.73;;
10226;SDS011;15634;48.766;2.272;2022-12-29T04:02:40;5.43;;;1.40;;
10226;SDS011;15634;48.766;2.272;2022-12-29T04:05:07;3.90;;;1.50;;
10226;SDS011;15634;48.766;2.272;2022-12-29T04:07:35;5.78;;;1.40;;
10226;SDS011;15634;48.766;2.272;2022-12-29T04:10:02;8.07;;;1.65;;
10226;SDS011;15634;48.766;2.272;2022-12-29T04:12:29;5.15;;;1.88;;
10226;SDS011;15634;48.766;2.272;2022-12-29T04:14:56;12.32;;;1.83;;
10226;SDS011;15634;48.766;2.272;2022-12-29T04:17:22;6.85;;;1.73;;
10226;SDS011;15634;48.766;2.272;2022-12-29T04:19:49;8.13;;;2.22;;
10226;SDS011;15634;48.766;2.272;2022-12-29T04:22:16;5.05;;;1.60;;
10226;SDS011;15634;48.766;2.272;2022-12-29T04:24:44;5.95;;;1.75;;
10226;SDS011;15634;48.766;2.272;2022-12-29T04:27:11;5.40;;;1.50;;
10226;SDS011;15634;48.766;2.272;2022-12-29T04:29:37;7.43;;;1.75;;
10226;SDS011;15634;48.766;2.272;2022-12-29T04:32:04;6.18;;;1.67;;
10226;SDS011;15634;48.766;2.272;2022-12-29T04:34:31;7.90;;;1.80;;
10226;SDS011;15634;48.766;2.272;2022-12-29T04:36:57;5.05;;;1.90;;
10226;SDS011;15634;48.766;2.272;2022-12-29T04:39:24;6.13;;;1.55;;
10226;SDS011;15634;48.766;2.272;2022-12-29T04:41:52;3.80;;;1.35;;
10226;SDS011;15634;48.766;2.272;2022-12-29T04:44:18;7.60;;;1.65;;
10226;SDS011;15634;48.766;2.272;2022-12-29T04:46:45;6.78;;;1.83;;
10226;SDS011;15634;48.766;2.272;2022-12-29T04:49:12;4.45;;;1.55;;
10226;SDS011;15634;48.766;2.272;2022-12-29T04:51:38;3.83;;;1.85;;
10226;SDS011;15634;48.766;2.272;2022-12-29T04:54:05;6.72;;;1.73;;
10226;SDS011;15634;48.766;2.272;2022-12-29T04:56:32;5.00;;;1.90;;
10226;SDS011;15634;48.766;2.272;2022-12-29T04:59:00;6.28;;;2.10;;
10226;SDS011;15634;48.766;2.272;2022-12-29T05:01:27;7.55;;;1.92;;
10226;SDS011;15634;48.766;2.272;2022-12-29T05:03:53;3.42;;;1.55;;
10226;SDS011;15634;48.766;2.272;2022-12-29T05:06:20;10.07;;;1.75;;
10226;SDS011;15634;48.766;2.272;2022-12-29T05:08:46;6.72;;;1.80;;
10226;SDS011;15634;48.766;2.272;2022-12-29T05:11:13;8.48;;;2.10;;
10226;SDS011;15634;48.766;2.272;2022-12-29T05:13:40;6.85;;;2.28;;
10226;SDS011;15634;48.766;2.272;2022-12-29T05:16:08;6.95;;;1.80;;
10226;SDS011;15634;48.766;2.272;2022-12-29T05:18:34;8.68;;;2.20;;
10226;SDS011;15634;48.766;2.272;2022-12-29T05:21:01;11.65;;;2.42;;
10226;SDS011;15634;48.766;2.272;2022-12-29T05:23:28;7.00;;;1.80;;
10226;SDS011;15634;48.766;2.272;2022-12-29T05:25:54;7.07;;;2.20;;
10226;SDS011;15634;48.766;2.272;2022-12-29T05:28:21;9.40;;;1.98;;
10226;SDS011;15634;48.766;2.272;2022-12-29T05:30:48;8.02;;;2.10;;
10226;SDS011;15634;48.766;2.272;2022-12-29T05:33:17;10.55;;;2.40;;
10226;SDS011;15634;48.766;2.272;2022-12-29T05:35:44;6.40;;;1.90;;
10226;SDS011;15634;48.766;2.272;2022-12-29T05:38:11;10.15;;;2.50;;
10226;SDS011;15634;48.766;2.272;2022-12-29T05:40:38;7.97;;;2.40;;
10226;SDS011;15634;48.766;2.272;2022-12-29T05:43:05;10.57;;;2.75;;
10226;SDS011;15634;48.766;2.272;2022-12-29T05:45:32;8.50;;;2.35;;
10226;SDS011;15634;48.766;2.272;2022-12-29T05:47:58;9.35;;;2.05;;
10226;SDS011;15634;48.766;2.272;2022-12-29T05:50:26;11.65;;;2.65;;
10226;SDS011;15634;48.766;2.272;2022-12-29T05:52:53;12.57;;;2.33;;
10226;SDS011;15634;48.766;2.272;2022-12-29T05:55:19;12.77;;;2.45;;
10226;SDS011;15634;48.766;2.272;2022-12-29T05:57:46;7.97;;;2.40;;
10226;SDS011;15634;48.766;2.272;2022-12-29T06:00:13;10.65;;;3.22;;
10226;SDS011;15634;48.766;2.272;2022-12-29T06:02:41;12.77;;;2.80;;
10226;SDS011;15634;48.766;2.272;2022-12-29T06:05:08;7.10;;;2.15;;
10226;SDS011;15634;48.766;2.272;2022-12-29T06:07:36;11.38;;;2.60;;
10226;SDS011;15634;48.766;2.272;2022-12-29T06:10:03;12.43;;;3.17;;
10226;SDS011;15634;48.766;2.272;2022-12-29T06:12:30;12.52;;;2.65;;
10226;SDS011;15634;48.766;2.272;2022-12-29T06:14:57;12.80;;;3.00;;
10226;SDS011;15634;48.766;2.272;2022-12-29T06:17:24;17.08;;;2.88;;
10226;SDS011;15634;48.766;2.272;2022-12-29T06:19:51;14.07;;;2.95;;
10226;SDS011;15634;48.766;2.272;2022-12-29T06:22:17;12.60;;;3.08;;
10226;SDS011;15634;48.766;2.272;2022-12-29T06:24:45;15.30;;;2.90;;
10226;SDS011;15634;48.766;2.272;2022-12-29T06:27:12;12.80;;;2.53;;
10226;SDS011;15634;48.766;2.272;2022-12-29T06:29:39;9.82;;;2.60;;
10226;SDS011;15634;48.766;2.272;2022-12-29T06:32:06;9.57;;;2.70;;
10226;SDS011;15634;48.766;2.272;2022-12-29T06:34:33;12.38;;;3.28;;
10226;SDS011;15634;48.766;2.272;2022-12-29T06:36:59;11.05;;;2.65;;
10226;SDS011;15634;48.766;2.272;2022-12-29T06:39:26;11.27;;;2.85;;
10226;SDS011;15634;48.766;2.272;2022-12-29T06:41:55;11.52;;;2.63;;
10226;SDS011;15634;48.766;2.272;2022-12-29T06:44:21;13.93;;;2.60;;
10226;SDS011;15634;48.766;2.272;2022-12-29T06:46:48;11.40;;;2.50;;
10226;SDS011;15634;48.766;2.272;2022-12-29T06:49:15;16.25;;;3.22;;
10226;SDS011;15634;48.766;2.272;2022-12-29T06:51:42;9.48;;;2.70;;
10226;SDS011;15634;48.766;2.272;2022-12-29T06:54:08;12.80;;;3.50;;
10226;SDS011;15634;48.766;2.272;2022-12-29T06:56:35;10.13;;;2.38;;
10226;SDS011;15634;48.766;2.272;2022-12-29T06:59:03;10.15;;;2.67;;
10226;SDS011;15634;48.766;2.272;2022-12-29T07:01:30;12.35;;;3.03;;
10226;SDS011;15634;48.766;2.272;2022-12-29T07:03:57;13.15;;;2.30;;
10226;SDS011;15634;48.766;2.272;2022-12-29T07:06:23;10.35;;;2.47;;
10226;SDS011;15634;48.766;2.272;2022-12-29T07:08:50;10.20;;;2.30;;
10226;SDS011;15634;48.766;2.272;2022-12-29T07:11:20;6.38;;;2.17;;
10226;SDS011;15634;48.766;2.272;2022-12-29T07:13:46;15.85;;;2.95;;
10226;SDS011;15634;48.766;2.272;2022-12-29T07:16:15;10.75;;;2.63;;
10226;SDS011;15634;48.766;2.272;2022-12-29T07:18:41;11.02;;;2.60;;
10226;SDS011;15634;48.766;2.272;2022-12-29T07:21:08;13.10;;;2.90;;
10226;SDS011;15634;48.766;2.272;2022-12-29T07:23:35;10.90;;;2.67;;
10226;SDS011;15634;48.766;2.272;2022-12-29T07:26:02;12.10;;;2.45;;
10226;SDS011;15634;48.766;2.272;2022-12-29T07:28:30;7.18;;;2.45;;
10226;SDS011;15634;48.766;2.272;2022-12-29T07:30:57;9.55;;;2.53;;
10226;SDS011;15634;48.766;2.272;2022-12-29T07:33:28;9.18;;;2.90;;
10226;SDS011;15634;48.766;2.272;2022-12-29T07:35:55;12.00;;;2.70;;
10226;SDS011;15634;48.766;2.272;2022-12-29T07:38:21;8.20;;;2.60;;
10226;SDS011;15634;48.766;2.272;2022-12-29T07:40:48;12.18;;;2.95;;
10226;SDS011;15634;48.766;2.272;2022-12-29T07:43:15;11.13;;;2.80;;
10226;SDS011;15634;48.766;2.272;2022-12-29T07:45:41;11.15;;;3.25;;
10226;SDS011;15634;48.766;2.272;2022-12-29T07:48:08;9.80;;;2.13;;
10226;SDS011;15634;48.766;2.272;2022-12-29T07:50:36;12.07;;;2.72;;
10226;SDS011;15634;48.766;2.272;2022-12-29T07:53:03;14.02;;;3.00;;
10226;SDS011;15634;48.766;2.272;2022-12-29T07:55:30;8.68;;;2.63;;
10226;SDS011;15634;48.766;2.272;2022-12-29T07:57:57;12.48;;;2.97;;
10226;SDS011;15634;48.766;2.272;2022-12-29T08:00:23;11.10;;;2.90;;
10226;SDS011;15634;48.766;2.272;2022-12-29T08:02:50;11.05;;;2.88;;
10226;SDS011;15634;48.766;2.272;2022-12-29T08:05:17;10.98;;;3.08;;
10226;SDS011;15634;48.766;2.272;2022-12-29T08:07:45;16.10;;;3.25;;
10226;SDS011;15634;48.766;2.272;2022-12-29T08:10:13;14.88;;;3.20;;
10226;SDS011;15634;48.766;2.272;2022-12-29T08:12:40;18.10;;;3.30;;
10226;SDS011;15634;48.766;2.272;2022-12-29T08:15:08;14.60;;;3.70;;
10226;SDS011;15634;48.766;2.272;2022-12-29T08:17:35;13.88;;;3.00;;
10226;SDS011;15634;48.766;2.272;2022-12-29T08:20:02;11.18;;;3.05;;
10226;SDS011;15634;48.766;2.272;2022-12-29T08:22:29;10.95;;;2.92;;
10226;SDS011;15634;48.766;2.272;2022-12-29T08:24:57;13.55;;;3.38;;
10226;SDS011;15634;48.766;2.272;2022-12-29T08:27:24;12.13;;;2.42;;
10226;SDS011;15634;48.766;2.272;2022-12-29T08:29:51;13.00;;;2.85;;
10226;SDS011;15634;48.766;2.272;2022-12-29T08:32:18;9.98;;;2.83;;
10226;SDS011;15634;48.766;2.272;2022-12-29T08:34:45;15.88;;;3.20;;
10226;SDS011;15634;48.766;2.272;2022-12-29T08:37:11;13.48;;;3.30;;
10226;SDS011;15634;48.766;2.272;2022-12-29T08:39:38;14.55;;;3.28;;
10226;SDS011;15634;48.766;2.272;2022-12-29T08:42:06;14.25;;;3.28;;
10226;SDS011;15634;48.766;2.272;2022-12-29T08:44:33;12.35;;;3.05;;
10226;SDS011;15634;48.766;2.272;2022-12-29T08:46:59;15.63;;;3.45;;
10226;SDS011;15634;48.766;2.272;2022-12-29T08:49:26;11.25;;;3.08;;
10226;SDS011;15634;48.766;2.272;2022-12-29T08:51:52;17.85;;;3.72;;
10226;SDS011;15634;48.766;2.272;2022-12-29T08:54:19;15.93;;;3.38;;
10226;SDS011;15634;48.766;2.272;2022-12-29T08:56:46;13.82;;;3.40;;
10226;SDS011;15634;48.766;2.272;2022-12-29T08:59:14;9.65;;;3.08;;
10226;SDS011;15634;48.766;2.272;2022-12-29T09:01:40;12.00;;;3.42;;
10226;SDS011;15634;48.766;2.272;2022-12-29T09:04:07;15.60;;;3.22;;
10226;SDS011;15634;48.766;2.272;2022-12-29T09:06:34;16.48;;;3.60;;
10226;SDS011;15634;48.766;2.272;2022-12-29T09:09:01;17.30;;;3.88;;
10226;SDS011;15634;48.766;2.272;2022-12-29T09:11:27;16.92;;;3.83;;
10226;SDS011;15634;48.766;2.272;2022-12-29T09:13:54;14.10;;;3.20;;
10226;SDS011;15634;48.766;2.272;2022-12-29T09:16:22;18.17;;;3.47;;
10226;SDS011;15634;48.766;2.272;2022-12-29T09:18:49;12.75;;;3.58;;
10226;SDS011;15634;48.766;2.272;2022-12-29T09:21:16;12.02;;;3.25;;
10226;SDS011;15634;48.766;2.272;2022-12-29T09:23:43;10.57;;;3.13;;
10226;SDS011;15634;48.766;2.272;2022-12-29T09:26:09;14.50;;;3.13;;
10226;SDS011;15634;48.766;2.272;2022-12-29T09:28:36;14.43;;;3.22;;
10226;SDS011;15634;48.766;2.272;2022-12-29T09:31:03;15.07;;;2.85;;
10226;SDS011;15634;48.766;2.272;2022-12-29T09:33:31;14.52;;;3.30;;
10226;SDS011;15634;48.766;2.272;2022-12-29T09:35:59;15.23;;;3.22;;
10226;SDS011;15634;48.766;2.272;2022-12-29T09:38:26;16.40;;;2.90;;
10226;SDS011;15634;48.766;2.272;2022-12-29T09:40:54;13.82;;;3.20;;
10226;SDS011;15634;48.766;2.272;2022-12-29T09:43:29;15.23;;;3.50;;
10226;SDS011;15634;48.766;2.272;2022-12-29T09:46:08;18.13;;;3.95;;
10226;SDS011;15634;48.766;2.272;2022-12-29T09:48:43;11.48;;;3.40;;
10226;SDS011;15634;48.766;2.272;2022-12-29T09:51:11;14.60;;;3.75;;
10226;SDS011;15634;48.766;2.272;2022-12-29T09:53:41;16.73;;;3.58;;
10226;SDS011;15634;48.766;2.272;2022-12-29T09:56:10;14.73;;;3.20;;
10226;SDS011;15634;48.766;2.272;2022-12-29T09:58:42;16.50;;;3.33;;
10226;SDS011;15634;48.766;2.272;2022-12-29T10:01:14;13.35;;;3.40;;
10226;SDS011;15634;48.766;2.272;2022-12-29T10:03:50;15.70;;;3.45;;
10226;SDS011;15634;48.766;2.272;2022-12-29T10:06:19;13.73;;;3.58;;
10226;SDS011;15634;48.766;2.272;2022-12-29T10:08:52;15.90;;;3.75;;
10226;SDS011;15634;48.766;2.272;2022-12-29T10:11:26;17.13;;;3.33;;
10226;SDS011;15634;48.766;2.272;2022-12-29T10:14:10;11.38;;;3.55;;
10226;SDS011;15634;48.766;2.272;2022-12-29T10:16:45;18.50;;;3.55;;
10226;SDS011;15634;48.766;2.272;2022-12-29T10:19:24;17.13;;;3.72;;
10226;SDS011;15634;48.766;2.272;2022-12-29T10:22:01;12.68;;;3.30;;
10226;SDS011;15634;48.766;2.272;2022-12-29T10:24:37;14.75;;;3.72;;
10226;SDS011;15634;48.766;2.272;2022-12-29T10:27:07;19.88;;;4.10;;
10226;SDS011;15634;48.766;2.272;2022-12-29T10:29:37;19.15;;;3.80;;
10226;SDS011;15634;48.766;2.272;2022-12-29T10:32:09;18.42;;;3.78;;
10226;SDS011;15634;48.766;2.272;2022-12-29T10:34:42;14.23;;;3.78;;
10226;SDS011;15634;48.766;2.272;2022-12-29T10:37:12;21.08;;;4.20;;
10226;SDS011;15634;48.766;2.272;2022-12-29T10:39:48;11.75;;;3.53;;
10226;SDS011;15634;48.766;2.272;2022-12-29T10:42:20;17.30;;;3.85;;
10226;SDS011;15634;48.766;2.272;2022-12-29T10:44:50;13.65;;;3.83;;
10226;SDS011;15634;48.766;2.272;2022-12-29T10:47:18;19.35;;;3.80;;
10226;SDS011;15634;48.766;2.272;2022-12-29T10:49:48;20.08;;;3.63;;
10226;SDS011;15634;48.766;2.272;2022-12-29T10:52:15;12.98;;;3.55;;
10226;SDS011;15634;48.766;2.272;2022-12-29T10:54:44;13.88;;;3.47;;
10226;SDS011;15634;48.766;2.272;2022-12-29T10:57:15;15.63;;;3.45;;
10226;SDS011;15634;48.766;2.272;2022-12-29T10:59:47;15.23;;;3.60;;
10226;SDS011;15634;48.766;2.272;2022-12-29T11:02:19;20.00;;;3.67;;
10226;SDS011;15634;48.766;2.272;2022-12-29T11:05:06;10.82;;;3.35;;
10226;SDS011;15634;48.766;2.272;2022-12-29T11:07:37;9.63;;;3.23;;
10226;SDS011;15634;48.766;2.272;2022-12-29T11:10:17;12.45;;;3.30;;
10226;SDS011;15634;48.766;2.272;2022-12-29T11:12:55;15.55;;;3.50;;
10226;SDS011;15634;48.766;2.272;2022-12-29T11:15:23;15.45;;;3.67;;
10226;SDS011;15634;48.766;2.272;2022-12-29T11:17:50;14.15;;;3.33;;
10226;SDS011;15634;48.766;2.272;2022-12-29T11:20:30;18.02;;;4.05;;
10226;SDS011;15634;48.766;2.272;2022-12-29T11:23:00;16.77;;;4.18;;
10226;SDS011;15634;48.766;2.272;2022-12-29T11:25:26;11.63;;;3.45;;
10226;SDS011;15634;48.766;2.272;2022-12-29T11:27:57;16.60;;;3.95;;
10226;SDS011;15634;48.766;2.272;2022-12-29T11:30:27;15.35;;;3.65;;
10226;SDS011;15634;48.766;2.272;2022-12-29T11:32:55;14.55;;;3.88;;
10226;SDS011;15634;48.766;2.272;2022-12-29T11:35:32;16.30;;;3.58;;
10226;SDS011;15634;48.766;2.272;2022-12-29T11:38:01;11.30;;;3.25;;
10226;SDS011;15634;48.766;2.272;2022-12-29T11:40:28;16.30;;;3.53;;
10226;SDS011;15634;48.766;2.272;2022-12-29T11:42:56;19.40;;;3.67;;
10226;SDS011;15634;48.766;2.272;2022-12-29T11:45:24;16.25;;;3.47;;
10226;SDS011;15634;48.766;2.272;2022-12-29T11:47:53;19.33;;;3.97;;
10226;SDS011;15634;48.766;2.272;2022-12-29T11:50:22;11.07;;;3.50;;
10226;SDS011;15634;48.766;2.272;2022-12-29T11:52:57;19.58;;;4.28;;
10226;SDS011;15634;48.766;2.272;2022-12-29T11:55:25;15.10;;;3.35;;
10226;SDS011;15634;48.766;2.272;2022-12-29T11:57:52;16.30;;;3.50;;
10226;SDS011;15634;48.766;2.272;2022-12-29T12:00:22;12.40;;;3.42;;
10226;SDS011;15634;48.766;2.272;2022-12-29T12:02:52;20.33;;;4.50;;
10226;SDS011;15634;48.766;2.272;2022-12-29T12:05:22;14.23;;;3.78;;
10226;SDS011;15634;48.766;2.272;2022-12-29T12:07:56;12.10;;;3.45;;
10226;SDS011;15634;48.766;2.272;2022-12-29T12:10:27;14.23;;;3.50;;
10226;SDS011;15634;48.766;2.272;2022-12-29T12:12:58;15.60;;;3.80;;
10226;SDS011;15634;48.766;2.272;2022-12-29T12:15:30;13.00;;;4.05;;
10226;SDS011;15634;48.766;2.272;2022-12-29T12:18:02;14.73;;;3.63;;
10226;SDS011;15634;48.766;2.272;2022-12-29T12:20:36;14.55;;;4.03;;
10226;SDS011;15634;48.766;2.272;2022-12-29T12:23:12;13.10;;;3.25;;
10226;SDS011;15634;48.766;2.272;2022-12-29T12:25:46;15.85;;;3.17;;
10226;SDS011;15634;48.766;2.272;2022-12-29T12:28:20;19.60;;;3.47;;
10226;SDS011;15634;48.766;2.272;2022-12-29T12:30:52;10.55;;;3.00;;
10226;SDS011;15634;48.766;2.272;2022-12-29T12:33:23;15.82;;;3.72;;
10226;SDS011;15634;48.766;2.272;2022-12-29T12:35:55;11.43;;;3.30;;
10226;SDS011;15634;48.766;2.272;2022-12-29T12:38:31;13.60;;;3.00;;
10226;SDS011;15634;48.766;2.272;2022-12-29T12:41:07;13.60;;;3.40;;
10226;SDS011;15634;48.766;2.272;2022-12-29T12:43:37;14.60;;;3.28;;
10226;SDS011;15634;48.766;2.272;2022-12-29T12:46:14;12.55;;;3.03;;
10226;SDS011;15634;48.766;2.272;2022-12-29T12:49:07;10.93;;;3.30;;
10226;SDS011;15634;48.766;2.272;2022-12-29T12:51:43;15.18;;;3.30;;
10226;SDS011;15634;48.766;2.272;2022-12-29T12:54:22;13.13;;;3.30;;
10226;SDS011;15634;48.766;2.272;2022-12-29T12:56:58;12.75;;;3.05;;
10226;SDS011;15634;48.766;2.272;2022-12-29T12:59:35;12.50;;;2.72;;
10226;SDS011;15634;48.766;2.272;2022-12-29T13:02:09;10.97;;;3.90;;
10226;SDS011;15634;48.766;2.272;2022-12-29T13:07:38;13.68;;;3.58;;
10226;SDS011;15634;48.766;2.272;2022-12-29T13:10:21;15.13;;;3.42;;
10226;SDS011;15634;48.766;2.272;2022-12-29T13:12:55;11.20;;;3.30;;
10226;SDS011;15634;48.766;2.272;2022-12-29T13:18:01;15.55;;;3.53;;
10226;SDS011;15634;48.766;2.272;2022-12-29T13:20:34;11.55;;;3.05;;
10226;SDS011;15634;48.766;2.272;2022-12-29T13:23:06;15.27;;;3.43;;
10226;SDS011;15634;48.766;2.272;2022-12-29T13:25:40;11.35;;;3.03;;
10226;SDS011;15634;48.766;2.272;2022-12-29T13:28:10;12.60;;;3.42;;
10226;SDS011;15634;48.766;2.272;2022-12-29T13:30:43;8.90;;;2.80;;
10226;SDS011;15634;48.766;2.272;2022-12-29T13:33:15;14.27;;;3.08;;
10226;SDS011;15634;48.766;2.272;2022-12-29T13:35:49;18.02;;;4.22;;
10226;SDS011;15634;48.766;2.272;2022-12-29T13:38:21;12.38;;;3.10;;
10226;SDS011;15634;48.766;2.272;2022-12-29T13:40:52;17.60;;;3.50;;
10226;SDS011;15634;48.766;2.272;2022-12-29T13:43:19;13.55;;;3.47;;
10226;SDS011;15634;48.766;2.272;2022-12-29T13:45:48;15.50;;;3.63;;
10226;SDS011;15634;48.766;2.272;2022-12-29T13:48:21;9.10;;;2.75;;
10226;SDS011;15634;48.766;2.272;2022-12-29T13:50:51;19.42;;;4.43;;
10226;SDS011;15634;48.766;2.272;2022-12-29T13:53:24;11.88;;;3.65;;
10226;SDS011;15634;48.766;2.272;2022-12-29T13:55:55;18.00;;;3.75;;
10226;SDS011;15634;48.766;2.272;2022-12-29T13:58:27;12.85;;;3.55;;
10226;SDS011;15634;48.766;2.272;2022-12-29T14:01:00;14.25;;;3.30;;
10226;SDS011;15634;48.766;2.272;2022-12-29T14:03:43;16.60;;;3.72;;
10226;SDS011;15634;48.766;2.272;2022-12-29T14:06:15;12.75;;;3.22;;
10226;SDS011;15634;48.766;2.272;2022-12-29T14:08:44;12.07;;;2.95;;
10226;SDS011;15634;48.766;2.272;2022-12-29T14:11:14;14.02;;;3.63;;
10226;SDS011;15634;48.766;2.272;2022-12-29T14:13:42;13.80;;;3.17;;
10226;SDS011;15634;48.766;2.272;2022-12-29T14:16:11;14.00;;;3.75;;
10226;SDS011;15634;48.766;2.272;2022-12-29T14:18:50;14.25;;;3.45;;
10226;SDS011;15634;48.766;2.272;2022-12-29T14:21:20;11.65;;;2.78;;
10226;SDS011;15634;48.766;2.272;2022-12-29T14:23:49;14.35;;;3.30;;
10226;SDS011;15634;48.766;2.272;2022-12-29T14:26:33;17.40;;;4.18;;
10226;SDS011;15634;48.766;2.272;2022-12-29T14:35:40;10.10;;;2.97;;
10226;SDS011;15634;48.766;2.272;2022-12-29T14:38:14;16.75;;;3.83;;
10226;SDS011;15634;48.766;2.272;2022-12-29T14:40:42;10.27;;;3.50;;
10226;SDS011;15634;48.766;2.272;2022-12-29T14:43:13;20.30;;;4.05;;
10226;SDS011;15634;48.766;2.272;2022-12-29T14:45:40;13.02;;;3.63;;
10226;SDS011;15634;48.766;2.272;2022-12-29T14:48:20;12.57;;;3.28;;
10226;SDS011;15634;48.766;2.272;2022-12-29T14:50:53;12.85;;;3.33;;
10226;SDS011;15634;48.766;2.272;2022-12-29T14:53:42;11.02;;;2.90;;
10226;SDS011;15634;48.766;2.272;2022-12-29T14:56:10;12.10;;;3.30;;
10226;SDS011;15634;48.766;2.272;2022-12-29T14:58:41;13.48;;;2.92;;
10226;SDS011;15634;48.766;2.272;2022-12-29T15:01:19;16.40;;;3.75;;
10226;SDS011;15634;48.766;2.272;2022-12-29T15:03:50;13.18;;;3.03;;
10226;SDS011;15634;48.766;2.272;2022-12-29T15:06:18;12.40;;;3.30;;
10226;SDS011;15634;48.766;2.272;2022-12-29T15:08:48;13.20;;;3.30;;
10226;SDS011;15634;48.766;2.272;2022-12-29T15:11:17;20.20;;;3.92;;
10226;SDS011;15634;48.766;2.272;2022-12-29T15:13:47;13.07;;;3.45;;
10226;SDS011;15634;48.766;2.272;2022-12-29T15:16:22;12.07;;;2.85;;
10226;SDS011;15634;48.766;2.272;2022-12-29T15:18:50;15.68;;;3.58;;
10226;SDS011;15634;48.766;2.272;2022-12-29T15:21:17;13.60;;;3.25;;